sensor_id;sensor_type;location;lat;lon;timestamp;temperature;humidity
75615;DHT22;64199;48.578;-4.520;2023-04-28T00:02:10;22.00;59.70
75615;DHT22;64199;48.578;-4.520;2023-04-28T00:04:42;22.00;59.50
75615;DHT22;64199;48.578;-4.520;2023-04-28T00:07:12;22.00;59.50
75615;DHT22;64199;48.578;-4.520;2023-04-28T00:09:38;22.00;59.30
75615;DHT22;64199;48.578;-4.520;2023-04-28T00:12:04;22.00;59.20
75615;DHT22;64199;48.578;-4.520;2023-04-28T00:14:31;22.00;59.20
75615;DHT22;64199;48.578;-4.520;2023-04-28T00:16:57;22.00;59.10
75615;DHT22;64199;48.578;-4.520;2023-04-28T00:19:23;22.00;59.00
75615;DHT22;64199;48.578;-4.520;2023-04-28T00:21:50;22.00;59.00
75615;DHT22;64199;48.578;-4.520;2023-04-28T00:24:16;22.00;59.00
75615;DHT22;64199;48.578;-4.520;2023-04-28T00:26:42;22.00;58.90
75615;DHT22;64199;48.578;-4.520;2023-04-28T00:29:08;22.00;58.90
75615;DHT22;64199;48.578;-4.520;2023-04-28T00:31:33;22.00;58.90
75615;DHT22;64199;48.578;-4.520;2023-04-28T00:33:59;22.00;58.90
75615;DHT22;64199;48.578;-4.520;2023-04-28T00:36:26;22.00;58.90
75615;DHT22;64199;48.578;-4.520;2023-04-28T00:38:56;21.90;58.80
75615;DHT22;64199;48.578;-4.520;2023-04-28T00:41:22;21.90;58.80
75615;DHT22;64199;48.578;-4.520;2023-04-28T00:43:49;21.90;58.80
75615;DHT22;64199;48.578;-4.520;2023-04-28T00:46:25;21.90;58.80
75615;DHT22;64199;48.578;-4.520;2023-04-28T00:48:52;21.90;58.90
75615;DHT22;64199;48.578;-4.520;2023-04-28T00:51:18;21.80;58.70
75615;DHT22;64199;48.578;-4.520;2023-04-28T00:53:44;21.80;58.80
75615;DHT22;64199;48.578;-4.520;2023-04-28T00:56:11;21.80;58.70
75615;DHT22;64199;48.578;-4.520;2023-04-28T00:58:37;21.80;58.70
75615;DHT22;64199;48.578;-4.520;2023-04-28T01:01:07;21.80;58.70
75615;DHT22;64199;48.578;-4.520;2023-04-28T01:03:35;21.70;58.70
75615;DHT22;64199;48.578;-4.520;2023-04-28T01:06:05;21.70;58.70
75615;DHT22;64199;48.578;-4.520;2023-04-28T01:08:33;21.70;58.70
75615;DHT22;64199;48.578;-4.520;2023-04-28T01:11:00;21.70;58.70
75615;DHT22;64199;48.578;-4.520;2023-04-28T01:13:27;21.70;58.70
75615;DHT22;64199;48.578;-4.520;2023-04-28T01:15:54;21.70;58.70
75615;DHT22;64199;48.578;-4.520;2023-04-28T01:18:20;21.60;58.70
75615;DHT22;64199;48.578;-4.520;2023-04-28T01:20:46;21.60;58.70
75615;DHT22;64199;48.578;-4.520;2023-04-28T01:23:12;21.60;58.70
75615;DHT22;64199;48.578;-4.520;2023-04-28T01:25:39;21.60;58.70
75615;DHT22;64199;48.578;-4.520;2023-04-28T01:28:06;21.60;58.70
75615;DHT22;64199;48.578;-4.520;2023-04-28T01:30:32;21.60;58.70
75615;DHT22;64199;48.578;-4.520;2023-04-28T01:32:58;21.60;58.70
75615;DHT22;64199;48.578;-4.520;2023-04-28T01:35:24;21.60;58.70
75615;DHT22;64199;48.578;-4.520;2023-04-28T01:37:50;21.60;58.80
75615;DHT22;64199;48.578;-4.520;2023-04-28T01:40:16;21.50;58.70
75615;DHT22;64199;48.578;-4.520;2023-04-28T01:42:43;21.60;58.80
75615;DHT22;64199;48.578;-4.520;2023-04-28T01:45:09;21.60;58.80
75615;DHT22;64199;48.578;-4.520;2023-04-28T01:47:35;21.50;58.90
75615;DHT22;64199;48.578;-4.520;2023-04-28T01:50:01;21.50;58.90
75615;DHT22;64199;48.578;-4.520;2023-04-28T01:52:27;21.50;58.80
75615;DHT22;64199;48.578;-4.520;2023-04-28T01:54:54;21.50;58.90
75615;DHT22;64199;48.578;-4.520;2023-04-28T01:57:20;21.50;58.90
75615;DHT22;64199;48.578;-4.520;2023-04-28T01:59:46;21.50;58.90
75615;DHT22;64199;48.578;-4.520;2023-04-28T02:02:12;21.40;58.90
75615;DHT22;64199;48.578;-4.520;2023-04-28T02:04:38;21.40;58.90
75615;DHT22;64199;48.578;-4.520;2023-04-28T02:07:05;21.40;59.00
75615;DHT22;64199;48.578;-4.520;2023-04-28T02:09:31;21.40;58.90
75615;DHT22;64199;48.578;-4.520;2023-04-28T02:11:58;21.40;59.00
75615;DHT22;64199;48.578;-4.520;2023-04-28T02:14:28;21.40;59.00
75615;DHT22;64199;48.578;-4.520;2023-04-28T02:16:57;21.40;58.90
75615;DHT22;64199;48.578;-4.520;2023-04-28T02:19:23;21.40;58.90
75615;DHT22;64199;48.578;-4.520;2023-04-28T02:21:49;21.40;58.90
75615;DHT22;64199;48.578;-4.520;2023-04-28T02:24:15;21.30;59.40
75615;DHT22;64199;48.578;-4.520;2023-04-28T02:26:41;21.40;58.80
75615;DHT22;64199;48.578;-4.520;2023-04-28T02:29:07;21.30;58.80
75615;DHT22;64199;48.578;-4.520;2023-04-28T02:31:33;21.30;58.80
75615;DHT22;64199;48.578;-4.520;2023-04-28T02:33:59;21.30;58.80
75615;DHT22;64199;48.578;-4.520;2023-04-28T02:36:25;21.30;58.80
75615;DHT22;64199;48.578;-4.520;2023-04-28T02:38:52;21.30;58.70
75615;DHT22;64199;48.578;-4.520;2023-04-28T02:41:18;21.30;58.80
75615;DHT22;64199;48.578;-4.520;2023-04-28T02:43:44;21.20;58.80
75615;DHT22;64199;48.578;-4.520;2023-04-28T02:46:10;21.20;58.80
75615;DHT22;64199;48.578;-4.520;2023-04-28T02:48:36;21.20;58.90
75615;DHT22;64199;48.578;-4.520;2023-04-28T02:51:02;21.20;59.10
75615;DHT22;64199;48.578;-4.520;2023-04-28T02:53:28;21.20;59.20
75615;DHT22;64199;48.578;-4.520;2023-04-28T02:55:54;21.20;59.40
75615;DHT22;64199;48.578;-4.520;2023-04-28T02:58:20;21.20;59.50
75615;DHT22;64199;48.578;-4.520;2023-04-28T03:00:47;21.20;59.50
75615;DHT22;64199;48.578;-4.520;2023-04-28T03:03:13;21.20;59.50
75615;DHT22;64199;48.578;-4.520;2023-04-28T03:05:39;21.20;59.50
75615;DHT22;64199;48.578;-4.520;2023-04-28T03:08:07;21.20;59.40
75615;DHT22;64199;48.578;-4.520;2023-04-28T03:10:36;21.30;59.40
75615;DHT22;64199;48.578;-4.520;2023-04-28T03:13:03;21.30;59.30
75615;DHT22;64199;48.578;-4.520;2023-04-28T03:15:29;21.30;59.20
75615;DHT22;64199;48.578;-4.520;2023-04-28T03:17:55;21.30;59.10
75615;DHT22;64199;48.578;-4.520;2023-04-28T03:20:21;21.40;59.10
75615;DHT22;64199;48.578;-4.520;2023-04-28T03:22:47;21.40;59.00
75615;DHT22;64199;48.578;-4.520;2023-04-28T03:25:13;21.40;58.90
75615;DHT22;64199;48.578;-4.520;2023-04-28T03:27:39;21.50;58.90
75615;DHT22;64199;48.578;-4.520;2023-04-28T03:30:06;21.50;58.80
75615;DHT22;64199;48.578;-4.520;2023-04-28T03:32:32;21.50;58.70
75615;DHT22;64199;48.578;-4.520;2023-04-28T03:34:58;21.50;58.70
75615;DHT22;64199;48.578;-4.520;2023-04-28T03:37:24;21.50;58.60
75615;DHT22;64199;48.578;-4.520;2023-04-28T03:39:51;21.50;58.60
75615;DHT22;64199;48.578;-4.520;2023-04-28T03:42:17;21.60;58.50
75615;DHT22;64199;48.578;-4.520;2023-04-28T03:44:43;21.60;58.40
75615;DHT22;64199;48.578;-4.520;2023-04-28T03:47:09;21.60;58.40
75615;DHT22;64199;48.578;-4.520;2023-04-28T03:49:35;21.60;58.40
75615;DHT22;64199;48.578;-4.520;2023-04-28T03:52:01;21.60;58.30
75615;DHT22;64199;48.578;-4.520;2023-04-28T03:54:28;21.60;58.20
75615;DHT22;64199;48.578;-4.520;2023-04-28T03:56:55;21.60;58.20
75615;DHT22;64199;48.578;-4.520;2023-04-28T03:59:22;21.60;58.20
75615;DHT22;64199;48.578;-4.520;2023-04-28T04:01:48;21.60;58.20
75615;DHT22;64199;48.578;-4.520;2023-04-28T04:04:14;21.60;58.10
75615;DHT22;64199;48.578;-4.520;2023-04-28T04:06:40;21.60;58.10
75615;DHT22;64199;48.578;-4.520;2023-04-28T04:09:06;21.60;58.10
75615;DHT22;64199;48.578;-4.520;2023-04-28T04:11:31;21.60;58.00
75615;DHT22;64199;48.578;-4.520;2023-04-28T04:13:57;21.70;58.00
75615;DHT22;64199;48.578;-4.520;2023-04-28T04:16:23;21.70;57.90
75615;DHT22;64199;48.578;-4.520;2023-04-28T04:18:49;21.70;57.90
75615;DHT22;64199;48.578;-4.520;2023-04-28T04:21:15;21.70;57.80
75615;DHT22;64199;48.578;-4.520;2023-04-28T04:23:41;21.70;57.70
75615;DHT22;64199;48.578;-4.520;2023-04-28T04:26:07;21.70;57.70
75615;DHT22;64199;48.578;-4.520;2023-04-28T04:28:33;21.70;57.60
75615;DHT22;64199;48.578;-4.520;2023-04-28T04:30:59;21.60;57.60
75615;DHT22;64199;48.578;-4.520;2023-04-28T04:33:25;21.60;57.60
75615;DHT22;64199;48.578;-4.520;2023-04-28T04:35:51;21.60;57.60
75615;DHT22;64199;48.578;-4.520;2023-04-28T04:38:17;21.60;57.70
75615;DHT22;64199;48.578;-4.520;2023-04-28T04:40:43;21.60;57.70
75615;DHT22;64199;48.578;-4.520;2023-04-28T04:43:09;21.60;57.80
75615;DHT22;64199;48.578;-4.520;2023-04-28T04:45:35;21.60;57.80
75615;DHT22;64199;48.578;-4.520;2023-04-28T04:48:01;21.60;57.80
75615;DHT22;64199;48.578;-4.520;2023-04-28T04:50:27;21.50;57.80
75615;DHT22;64199;48.578;-4.520;2023-04-28T04:52:54;21.50;57.80
75615;DHT22;64199;48.578;-4.520;2023-04-28T04:55:22;21.50;57.80
75615;DHT22;64199;48.578;-4.520;2023-04-28T04:57:48;21.50;57.80
75615;DHT22;64199;48.578;-4.520;2023-04-28T05:00:14;21.50;57.80
75615;DHT22;64199;48.578;-4.520;2023-04-28T05:02:41;21.50;57.80
75615;DHT22;64199;48.578;-4.520;2023-04-28T05:05:08;21.40;57.80
75615;DHT22;64199;48.578;-4.520;2023-04-28T05:07:34;21.40;57.80
75615;DHT22;64199;48.578;-4.520;2023-04-28T05:10:00;21.40;57.90
75615;DHT22;64199;48.578;-4.520;2023-04-28T05:12:26;21.40;57.90
75615;DHT22;64199;48.578;-4.520;2023-04-28T05:14:52;21.40;57.90
75615;DHT22;64199;48.578;-4.520;2023-04-28T05:17:18;21.40;57.90
75615;DHT22;64199;48.578;-4.520;2023-04-28T05:19:44;21.40;57.90
75615;DHT22;64199;48.578;-4.520;2023-04-28T05:22:10;21.40;58.00
75615;DHT22;64199;48.578;-4.520;2023-04-28T05:24:36;21.40;58.00
75615;DHT22;64199;48.578;-4.520;2023-04-28T05:27:02;21.30;58.00
75615;DHT22;64199;48.578;-4.520;2023-04-28T05:29:28;21.30;58.00
75615;DHT22;64199;48.578;-4.520;2023-04-28T05:31:54;21.30;58.00
75615;DHT22;64199;48.578;-4.520;2023-04-28T05:34:20;21.30;58.10
75615;DHT22;64199;48.578;-4.520;2023-04-28T05:36:46;21.30;58.10
75615;DHT22;64199;48.578;-4.520;2023-04-28T05:39:12;21.30;58.10
75615;DHT22;64199;48.578;-4.520;2023-04-28T05:41:38;21.40;58.10
75615;DHT22;64199;48.578;-4.520;2023-04-28T05:44:04;21.50;58.20
75615;DHT22;64199;48.578;-4.520;2023-04-28T05:46:30;21.50;58.10
75615;DHT22;64199;48.578;-4.520;2023-04-28T05:48:56;21.60;58.20
75615;DHT22;64199;48.578;-4.520;2023-04-28T05:51:22;21.70;58.10
75615;DHT22;64199;48.578;-4.520;2023-04-28T05:53:48;21.70;58.10
75615;DHT22;64199;48.578;-4.520;2023-04-28T05:56:15;21.80;58.10
75615;DHT22;64199;48.578;-4.520;2023-04-28T05:58:41;21.90;58.20
75615;DHT22;64199;48.578;-4.520;2023-04-28T06:01:09;21.90;58.00
75615;DHT22;64199;48.578;-4.520;2023-04-28T06:03:36;22.00;58.10
75615;DHT22;64199;48.578;-4.520;2023-04-28T06:06:02;22.00;57.90
75615;DHT22;64199;48.578;-4.520;2023-04-28T06:08:28;22.10;57.90
75615;DHT22;64199;48.578;-4.520;2023-04-28T06:10:54;22.20;57.90
75615;DHT22;64199;48.578;-4.520;2023-04-28T06:13:20;22.20;57.80
75615;DHT22;64199;48.578;-4.520;2023-04-28T06:15:46;22.30;57.80
75615;DHT22;64199;48.578;-4.520;2023-04-28T06:18:12;22.30;57.70
75615;DHT22;64199;48.578;-4.520;2023-04-28T06:20:37;22.30;57.70
75615;DHT22;64199;48.578;-4.520;2023-04-28T06:23:03;22.30;57.60
75615;DHT22;64199;48.578;-4.520;2023-04-28T06:25:29;22.30;57.60
75615;DHT22;64199;48.578;-4.520;2023-04-28T06:27:55;22.30;57.60
75615;DHT22;64199;48.578;-4.520;2023-04-28T06:30:22;22.30;57.60
75615;DHT22;64199;48.578;-4.520;2023-04-28T06:32:48;22.40;57.70
75615;DHT22;64199;48.578;-4.520;2023-04-28T06:35:15;22.30;57.70
75615;DHT22;64199;48.578;-4.520;2023-04-28T06:37:41;22.40;57.80
75615;DHT22;64199;48.578;-4.520;2023-04-28T06:40:09;22.40;57.80
75615;DHT22;64199;48.578;-4.520;2023-04-28T06:42:35;22.40;57.80
75615;DHT22;64199;48.578;-4.520;2023-04-28T06:45:01;22.30;57.80
75615;DHT22;64199;48.578;-4.520;2023-04-28T06:47:27;22.30;58.40
75615;DHT22;64199;48.578;-4.520;2023-04-28T06:49:53;22.30;57.90
75615;DHT22;64199;48.578;-4.520;2023-04-28T06:52:19;22.40;58.00
75615;DHT22;64199;48.578;-4.520;2023-04-28T06:54:48;22.30;57.90
75615;DHT22;64199;48.578;-4.520;2023-04-28T06:57:14;22.30;57.90
75615;DHT22;64199;48.578;-4.520;2023-04-28T06:59:40;22.40;58.10
75615;DHT22;64199;48.578;-4.520;2023-04-28T07:02:08;22.40;58.10
75615;DHT22;64199;48.578;-4.520;2023-04-28T07:04:35;22.40;58.20
75615;DHT22;64199;48.578;-4.520;2023-04-28T07:07:01;22.40;58.10
75615;DHT22;64199;48.578;-4.520;2023-04-28T07:09:27;22.40;58.10
75615;DHT22;64199;48.578;-4.520;2023-04-28T07:11:53;22.40;58.20
75615;DHT22;64199;48.578;-4.520;2023-04-28T07:14:19;22.30;58.20
75615;DHT22;64199;48.578;-4.520;2023-04-28T07:16:45;22.30;58.20
75615;DHT22;64199;48.578;-4.520;2023-04-28T07:19:11;22.30;58.20
75615;DHT22;64199;48.578;-4.520;2023-04-28T07:21:37;22.30;58.30
75615;DHT22;64199;48.578;-4.520;2023-04-28T07:24:02;22.30;58.30
75615;DHT22;64199;48.578;-4.520;2023-04-28T07:26:28;22.20;58.30
75615;DHT22;64199;48.578;-4.520;2023-04-28T07:28:54;22.20;58.30
75615;DHT22;64199;48.578;-4.520;2023-04-28T07:31:20;22.20;58.30
75615;DHT22;64199;48.578;-4.520;2023-04-28T07:33:46;22.20;58.30
75615;DHT22;64199;48.578;-4.520;2023-04-28T07:36:12;22.10;58.30
75615;DHT22;64199;48.578;-4.520;2023-04-28T07:38:38;22.10;58.30
75615;DHT22;64199;48.578;-4.520;2023-04-28T07:41:04;22.10;58.30
75615;DHT22;64199;48.578;-4.520;2023-04-28T07:43:30;22.00;58.20
75615;DHT22;64199;48.578;-4.520;2023-04-28T07:45:56;22.00;58.30
75615;DHT22;64199;48.578;-4.520;2023-04-28T07:48:22;22.00;58.20
75615;DHT22;64199;48.578;-4.520;2023-04-28T07:50:48;21.90;58.20
75615;DHT22;64199;48.578;-4.520;2023-04-28T07:53:13;21.90;58.20
75615;DHT22;64199;48.578;-4.520;2023-04-28T07:55:39;21.90;58.20
75615;DHT22;64199;48.578;-4.520;2023-04-28T07:58:09;21.90;58.20
75615;DHT22;64199;48.578;-4.520;2023-04-28T08:00:35;21.80;58.20
75615;DHT22;64199;48.578;-4.520;2023-04-28T08:03:01;21.80;58.20
75615;DHT22;64199;48.578;-4.520;2023-04-28T08:05:27;21.80;58.20
75615;DHT22;64199;48.578;-4.520;2023-04-28T08:07:53;21.80;58.20
75615;DHT22;64199;48.578;-4.520;2023-04-28T08:10:19;21.80;58.30
75615;DHT22;64199;48.578;-4.520;2023-04-28T08:12:44;21.70;58.20
75615;DHT22;64199;48.578;-4.520;2023-04-28T08:15:11;21.70;58.30
75615;DHT22;64199;48.578;-4.520;2023-04-28T08:17:37;21.70;58.30
75615;DHT22;64199;48.578;-4.520;2023-04-28T08:20:04;21.60;58.20
75615;DHT22;64199;48.578;-4.520;2023-04-28T08:22:31;21.60;58.30
75615;DHT22;64199;48.578;-4.520;2023-04-28T08:24:57;21.60;58.30
75615;DHT22;64199;48.578;-4.520;2023-04-28T08:27:23;21.60;58.30
75615;DHT22;64199;48.578;-4.520;2023-04-28T08:29:50;21.60;58.30
75615;DHT22;64199;48.578;-4.520;2023-04-28T08:32:16;21.60;58.30
75615;DHT22;64199;48.578;-4.520;2023-04-28T08:34:42;21.50;58.30
75615;DHT22;64199;48.578;-4.520;2023-04-28T08:37:08;21.50;58.30
75615;DHT22;64199;48.578;-4.520;2023-04-28T08:39:34;21.50;58.30
75615;DHT22;64199;48.578;-4.520;2023-04-28T08:42:03;21.50;58.30
75615;DHT22;64199;48.578;-4.520;2023-04-28T08:44:39;21.50;58.30
75615;DHT22;64199;48.578;-4.520;2023-04-28T08:47:12;21.50;58.30
75615;DHT22;64199;48.578;-4.520;2023-04-28T08:49:39;21.40;58.30
75615;DHT22;64199;48.578;-4.520;2023-04-28T08:52:13;21.40;58.30
75615;DHT22;64199;48.578;-4.520;2023-04-28T08:54:41;21.40;58.40
75615;DHT22;64199;48.578;-4.520;2023-04-28T08:57:09;21.40;58.40
75615;DHT22;64199;48.578;-4.520;2023-04-28T08:59:39;21.40;58.40
75615;DHT22;64199;48.578;-4.520;2023-04-28T09:02:07;21.30;58.40
75615;DHT22;64199;48.578;-4.520;2023-04-28T09:04:33;21.30;58.50
75615;DHT22;64199;48.578;-4.520;2023-04-28T09:06:59;21.30;58.40
75615;DHT22;64199;48.578;-4.520;2023-04-28T09:09:27;21.30;58.50
75615;DHT22;64199;48.578;-4.520;2023-04-28T09:12:00;21.30;58.50
75615;DHT22;64199;48.578;-4.520;2023-04-28T09:14:27;21.30;58.50
75615;DHT22;64199;48.578;-4.520;2023-04-28T09:16:54;21.30;58.50
75615;DHT22;64199;48.578;-4.520;2023-04-28T09:19:20;21.20;58.50
75615;DHT22;64199;48.578;-4.520;2023-04-28T09:21:54;21.20;58.50
75615;DHT22;64199;48.578;-4.520;2023-04-28T09:24:40;21.20;58.50
75615;DHT22;64199;48.578;-4.520;2023-04-28T09:27:08;21.20;58.50
75615;DHT22;64199;48.578;-4.520;2023-04-28T09:29:38;21.20;58.50
75615;DHT22;64199;48.578;-4.520;2023-04-28T09:32:17;21.20;58.50
75615;DHT22;64199;48.578;-4.520;2023-04-28T09:34:51;21.20;58.60
75615;DHT22;64199;48.578;-4.520;2023-04-28T09:37:27;21.20;59.30
75615;DHT22;64199;48.578;-4.520;2023-04-28T09:39:55;21.10;58.60
75615;DHT22;64199;48.578;-4.520;2023-04-28T09:42:43;21.10;58.60
75615;DHT22;64199;48.578;-4.520;2023-04-28T09:45:13;21.10;58.70
75615;DHT22;64199;48.578;-4.520;2023-04-28T09:47:42;21.10;58.60
75615;DHT22;64199;48.578;-4.520;2023-04-28T09:50:09;21.10;58.70
75615;DHT22;64199;48.578;-4.520;2023-04-28T09:52:37;21.10;58.70
75615;DHT22;64199;48.578;-4.520;2023-04-28T09:55:05;21.10;58.70
75615;DHT22;64199;48.578;-4.520;2023-04-28T09:57:33;21.10;58.80
75615;DHT22;64199;48.578;-4.520;2023-04-28T10:00:01;21.10;58.90
75615;DHT22;64199;48.578;-4.520;2023-04-28T10:02:27;21.00;58.90
75615;DHT22;64199;48.578;-4.520;2023-04-28T10:04:53;21.00;58.90
75615;DHT22;64199;48.578;-4.520;2023-04-28T10:07:21;21.00;58.90
75615;DHT22;64199;48.578;-4.520;2023-04-28T10:09:48;21.10;59.00
75615;DHT22;64199;48.578;-4.520;2023-04-28T10:12:19;21.00;58.90
75615;DHT22;64199;48.578;-4.520;2023-04-28T10:14:46;21.00;59.00
75615;DHT22;64199;48.578;-4.520;2023-04-28T10:17:15;21.00;59.00
75615;DHT22;64199;48.578;-4.520;2023-04-28T10:19:43;21.00;59.00
75615;DHT22;64199;48.578;-4.520;2023-04-28T10:27:31;21.00;59.00
75615;DHT22;64199;48.578;-4.520;2023-04-28T10:30:11;21.00;59.10
75615;DHT22;64199;48.578;-4.520;2023-04-28T10:32:38;21.00;59.20
75615;DHT22;64199;48.578;-4.520;2023-04-28T10:38:10;21.00;59.10
75615;DHT22;64199;48.578;-4.520;2023-04-28T10:40:44;21.00;59.20
75615;DHT22;64199;48.578;-4.520;2023-04-28T10:56:18;20.90;59.30
75615;DHT22;64199;48.578;-4.520;2023-04-28T10:58:44;20.90;59.30
75615;DHT22;64199;48.578;-4.520;2023-04-28T11:01:30;20.90;59.30
75615;DHT22;64199;48.578;-4.520;2023-04-28T11:04:06;20.90;59.30
75615;DHT22;64199;48.578;-4.520;2023-04-28T11:06:42;20.90;59.30
75615;DHT22;64199;48.578;-4.520;2023-04-28T11:16:54;20.90;59.30
75615;DHT22;64199;48.578;-4.520;2023-04-28T11:19:22;20.90;59.30
75615;DHT22;64199;48.578;-4.520;2023-04-28T11:21:52;20.90;59.40
75615;DHT22;64199;48.578;-4.520;2023-04-28T11:24:22;21.00;59.40
75615;DHT22;64199;48.578;-4.520;2023-04-28T11:26:52;20.90;59.40
75615;DHT22;64199;48.578;-4.520;2023-04-28T11:29:39;20.90;59.40
75615;DHT22;64199;48.578;-4.520;2023-04-28T11:32:07;20.90;59.40
75615;DHT22;64199;48.578;-4.520;2023-04-28T11:34:34;20.90;59.40
75615;DHT22;64199;48.578;-4.520;2023-04-28T11:37:00;20.90;59.50
75615;DHT22;64199;48.578;-4.520;2023-04-28T11:41:53;20.90;59.50
75615;DHT22;64199;48.578;-4.520;2023-04-28T11:44:22;20.90;59.50
75615;DHT22;64199;48.578;-4.520;2023-04-28T11:46:51;20.90;59.60
75615;DHT22;64199;48.578;-4.520;2023-04-28T11:49:23;20.90;59.60
75615;DHT22;64199;48.578;-4.520;2023-04-28T11:51:50;20.90;59.60
75615;DHT22;64199;48.578;-4.520;2023-04-28T11:54:25;20.90;59.60
75615;DHT22;64199;48.578;-4.520;2023-04-28T11:56:52;20.90;59.70
75615;DHT22;64199;48.578;-4.520;2023-04-28T11:59:35;20.90;59.70
75615;DHT22;64199;48.578;-4.520;2023-04-28T12:02:03;20.90;59.70
75615;DHT22;64199;48.578;-4.520;2023-04-28T12:04:35;20.90;59.70
75615;DHT22;64199;48.578;-4.520;2023-04-28T12:07:18;20.90;59.70
75615;DHT22;64199;48.578;-4.520;2023-04-28T12:10:12;20.90;59.80
75615;DHT22;64199;48.578;-4.520;2023-04-28T12:12:40;20.90;59.70
75615;DHT22;64199;48.578;-4.520;2023-04-28T12:15:07;20.90;59.70
75615;DHT22;64199;48.578;-4.520;2023-04-28T12:17:41;20.90;59.80
75615;DHT22;64199;48.578;-4.520;2023-04-28T12:20:16;20.90;59.80
75615;DHT22;64199;48.578;-4.520;2023-04-28T12:22:54;20.90;59.70
75615;DHT22;64199;48.578;-4.520;2023-04-28T12:25:21;20.90;59.70
75615;DHT22;64199;48.578;-4.520;2023-04-28T12:28:03;20.90;59.80
75615;DHT22;64199;48.578;-4.520;2023-04-28T12:30:31;20.90;59.80
75615;DHT22;64199;48.578;-4.520;2023-04-28T12:32:57;20.90;59.70
75615;DHT22;64199;48.578;-4.520;2023-04-28T12:35:24;20.90;59.70
75615;DHT22;64199;48.578;-4.520;2023-04-28T12:37:51;20.90;59.80
75615;DHT22;64199;48.578;-4.520;2023-04-28T12:40:18;20.90;59.70
75615;DHT22;64199;48.578;-4.520;2023-04-28T12:42:50;20.90;59.70
75615;DHT22;64199;48.578;-4.520;2023-04-28T12:45:16;21.00;59.80
75615;DHT22;64199;48.578;-4.520;2023-04-28T12:47:42;20.90;59.80
75615;DHT22;64199;48.578;-4.520;2023-04-28T12:50:08;20.90;59.80
75615;DHT22;64199;48.578;-4.520;2023-04-28T12:52:34;20.90;59.80
75615;DHT22;64199;48.578;-4.520;2023-04-28T12:55:02;20.90;59.80
75615;DHT22;64199;48.578;-4.520;2023-04-28T12:57:28;20.90;59.80
75615;DHT22;64199;48.578;-4.520;2023-04-28T12:59:54;20.90;59.80
75615;DHT22;64199;48.578;-4.520;2023-04-28T13:02:22;20.90;59.90
75615;DHT22;64199;48.578;-4.520;2023-04-28T13:04:47;20.90;59.90
75615;DHT22;64199;48.578;-4.520;2023-04-28T13:07:17;20.90;60.00
75615;DHT22;64199;48.578;-4.520;2023-04-28T13:09:43;20.90;60.00
75615;DHT22;64199;48.578;-4.520;2023-04-28T13:12:09;20.90;60.00
75615;DHT22;64199;48.578;-4.520;2023-04-28T13:14:36;20.90;60.00
75615;DHT22;64199;48.578;-4.520;2023-04-28T13:17:02;21.00;60.00
75615;DHT22;64199;48.578;-4.520;2023-04-28T13:19:28;20.90;60.00
75615;DHT22;64199;48.578;-4.520;2023-04-28T13:21:55;20.90;60.00
75615;DHT22;64199;48.578;-4.520;2023-04-28T13:24:21;21.00;60.10
75615;DHT22;64199;48.578;-4.520;2023-04-28T13:26:47;21.00;60.20
75615;DHT22;64199;48.578;-4.520;2023-04-28T13:29:14;21.00;60.30
75615;DHT22;64199;48.578;-4.520;2023-04-28T13:31:40;21.00;60.30
75615;DHT22;64199;48.578;-4.520;2023-04-28T13:34:06;21.00;60.20
75615;DHT22;64199;48.578;-4.520;2023-04-28T13:36:34;21.00;60.10
75615;DHT22;64199;48.578;-4.520;2023-04-28T13:39:00;21.00;60.00
75615;DHT22;64199;48.578;-4.520;2023-04-28T13:41:26;21.10;60.80
75615;DHT22;64199;48.578;-4.520;2023-04-28T13:43:52;21.10;59.90
75615;DHT22;64199;48.578;-4.520;2023-04-28T13:46:19;21.20;59.80
75615;DHT22;64199;48.578;-4.520;2023-04-28T13:48:44;21.20;59.80
75615;DHT22;64199;48.578;-4.520;2023-04-28T13:51:11;21.20;59.70
75615;DHT22;64199;48.578;-4.520;2023-04-28T13:53:40;21.30;59.60
75615;DHT22;64199;48.578;-4.520;2023-04-28T13:56:06;21.30;59.50
75615;DHT22;64199;48.578;-4.520;2023-04-28T13:58:33;21.40;59.40
75615;DHT22;64199;48.578;-4.520;2023-04-28T14:00:59;21.40;59.30
75615;DHT22;64199;48.578;-4.520;2023-04-28T14:03:26;21.50;59.30
75615;DHT22;64199;48.578;-4.520;2023-04-28T14:05:54;21.50;59.20
75615;DHT22;64199;48.578;-4.520;2023-04-28T14:08:22;21.50;59.00
75615;DHT22;64199;48.578;-4.520;2023-04-28T14:10:48;21.50;58.90
75615;DHT22;64199;48.578;-4.520;2023-04-28T14:13:18;21.60;58.90
75615;DHT22;64199;48.578;-4.520;2023-04-28T14:15:44;21.60;58.70
75615;DHT22;64199;48.578;-4.520;2023-04-28T14:18:11;21.70;59.30
75615;DHT22;64199;48.578;-4.520;2023-04-28T14:20:38;21.70;58.60
75615;DHT22;64199;48.578;-4.520;2023-04-28T14:23:04;21.80;59.20
75615;DHT22;64199;48.578;-4.520;2023-04-28T14:25:29;21.80;58.40
75615;DHT22;64199;48.578;-4.520;2023-04-28T14:27:55;21.80;58.40
75615;DHT22;64199;48.578;-4.520;2023-04-28T14:30:21;21.80;58.30
75615;DHT22;64199;48.578;-4.520;2023-04-28T14:32:48;21.90;58.30
75615;DHT22;64199;48.578;-4.520;2023-04-28T14:35:14;21.90;58.30
75615;DHT22;64199;48.578;-4.520;2023-04-28T14:37:40;21.90;58.20
75615;DHT22;64199;48.578;-4.520;2023-04-28T14:40:07;21.90;58.20
75615;DHT22;64199;48.578;-4.520;2023-04-28T14:42:34;21.90;58.10
75615;DHT22;64199;48.578;-4.520;2023-04-28T14:45:09;21.90;58.10
75615;DHT22;64199;48.578;-4.520;2023-04-28T14:47:36;21.90;58.10
75615;DHT22;64199;48.578;-4.520;2023-04-28T14:50:03;21.90;58.10
75615;DHT22;64199;48.578;-4.520;2023-04-28T14:52:29;21.80;58.00
75615;DHT22;64199;48.578;-4.520;2023-04-28T14:54:57;21.80;58.10
75615;DHT22;64199;48.578;-4.520;2023-04-28T14:57:26;21.80;58.10
75615;DHT22;64199;48.578;-4.520;2023-04-28T14:59:52;21.80;58.20
75615;DHT22;64199;48.578;-4.520;2023-04-28T15:02:19;21.80;58.20
75615;DHT22;64199;48.578;-4.520;2023-04-28T15:04:51;21.80;58.20
75615;DHT22;64199;48.578;-4.520;2023-04-28T15:07:17;21.70;58.10
75615;DHT22;64199;48.578;-4.520;2023-04-28T15:09:43;21.80;58.20
75615;DHT22;64199;48.578;-4.520;2023-04-28T15:12:09;21.80;58.20
75615;DHT22;64199;48.578;-4.520;2023-04-28T15:14:35;21.70;58.80
75615;DHT22;64199;48.578;-4.520;2023-04-28T15:17:01;21.80;58.20
75615;DHT22;64199;48.578;-4.520;2023-04-28T15:19:28;21.70;58.20
75615;DHT22;64199;48.578;-4.520;2023-04-28T15:21:55;21.70;58.10
75615;DHT22;64199;48.578;-4.520;2023-04-28T15:24:21;21.70;58.10
75615;DHT22;64199;48.578;-4.520;2023-04-28T15:26:47;21.70;58.10
75615;DHT22;64199;48.578;-4.520;2023-04-28T15:29:13;21.70;58.10
75615;DHT22;64199;48.578;-4.520;2023-04-28T15:31:39;21.70;58.10
75615;DHT22;64199;48.578;-4.520;2023-04-28T15:34:06;21.70;58.20
75615;DHT22;64199;48.578;-4.520;2023-04-28T15:36:37;21.70;58.20
75615;DHT22;64199;48.578;-4.520;2023-04-28T15:39:06;21.70;58.20
75615;DHT22;64199;48.578;-4.520;2023-04-28T15:41:33;21.70;58.20
75615;DHT22;64199;48.578;-4.520;2023-04-28T15:43:59;21.70;58.30
75615;DHT22;64199;48.578;-4.520;2023-04-28T15:46:26;21.70;58.30
75615;DHT22;64199;48.578;-4.520;2023-04-28T15:48:52;21.70;58.30